sensor_id;sensor_type;location;lat;lon;timestamp;P1;durP1;ratioP1;P2;durP2;ratioP2
17648;SDS011;8943;51.110;-4.158;2023-03-23T00:01:09;25.90;;;5.10;;
17648;SDS011;8943;51.110;-4.158;2023-03-23T00:03:42;26.67;;;4.77;;
17648;SDS011;8943;51.110;-4.158;2023-03-23T04:28:29;21.37;;;3.17;;
17648;SDS011;8943;51.110;-4.158;2023-03-23T04:30:59;15.93;;;3.33;;
17648;SDS011;8943;51.110;-4.158;2023-03-23T04:33:29;16.33;;;3.50;;
17648;SDS011;8943;51.110;-4.158;2023-03-23T04:35:58;21.13;;;3.77;;
17648;SDS011;8943;51.110;-4.158;2023-03-23T04:41:05;21.70;;;3.63;;
17648;SDS011;8943;51.110;-4.158;2023-03-23T04:43:42;23.40;;;4.43;;
17648;SDS011;8943;51.110;-4.158;2023-03-23T04:46:10;19.87;;;4.07;;
17648;SDS011;8943;51.110;-4.158;2023-03-23T04:48:42;22.27;;;3.63;;
17648;SDS011;8943;51.110;-4.158;2023-03-23T05:29:51;17.33;;;4.20;;
17648;SDS011;8943;51.110;-4.158;2023-03-23T05:32:19;26.33;;;4.53;;
17648;SDS011;8943;51.110;-4.158;2023-03-23T05:34:46;18.83;;;3.97;;
17648;SDS011;8943;51.110;-4.158;2023-03-23T05:37:14;14.57;;;3.30;;
17648;SDS011;8943;51.110;-4.158;2023-03-23T05:43:02;15.87;;;3.03;;
17648;SDS011;8943;51.110;-4.158;2023-03-23T05:49:21;19.80;;;3.97;;
17648;SDS011;8943;51.110;-4.158;2023-03-23T06:14:27;19.17;;;3.50;;
17648;SDS011;8943;51.110;-4.158;2023-03-23T06:16:58;18.57;;;3.23;;
17648;SDS011;8943;51.110;-4.158;2023-03-23T06:19:30;16.07;;;3.07;;
17648;SDS011;8943;51.110;-4.158;2023-03-23T06:22:02;22.17;;;3.50;;
17648;SDS011;8943;51.110;-4.158;2023-03-23T06:24:30;19.93;;;3.97;;
17648;SDS011;8943;51.110;-4.158;2023-03-23T06:27:00;16.20;;;3.37;;
17648;SDS011;8943;51.110;-4.158;2023-03-23T06:29:33;15.50;;;3.53;;
17648;SDS011;8943;51.110;-4.158;2023-03-23T06:32:01;14.20;;;3.37;;
17648;SDS011;8943;51.110;-4.158;2023-03-23T06:40:27;14.80;;;3.10;;
17648;SDS011;8943;51.110;-4.158;2023-03-23T06:42:56;22.07;;;3.87;;
17648;SDS011;8943;51.110;-4.158;2023-03-23T06:45:29;16.10;;;3.70;;
17648;SDS011;8943;51.110;-4.158;2023-03-23T06:48:00;17.70;;;3.33;;
17648;SDS011;8943;51.110;-4.158;2023-03-23T06:50:41;19.93;;;3.60;;
17648;SDS011;8943;51.110;-4.158;2023-03-23T06:53:21;21.63;;;4.17;;
17648;SDS011;8943;51.110;-4.158;2023-03-23T06:56:04;12.07;;;3.43;;
17648;SDS011;8943;51.110;-4.158;2023-03-23T06:58:34;12.87;;;3.30;;
17648;SDS011;8943;51.110;-4.158;2023-03-23T07:01:05;15.47;;;3.47;;
17648;SDS011;8943;51.110;-4.158;2023-03-23T07:03:33;15.13;;;3.23;;
17648;SDS011;8943;51.110;-4.158;2023-03-23T07:06:02;17.87;;;3.27;;
17648;SDS011;8943;51.110;-4.158;2023-03-23T07:08:29;19.50;;;3.37;;
17648;SDS011;8943;51.110;-4.158;2023-03-23T07:10:58;23.17;;;4.13;;
17648;SDS011;8943;51.110;-4.158;2023-03-23T07:13:26;20.70;;;3.70;;
17648;SDS011;8943;51.110;-4.158;2023-03-23T07:15:55;28.23;;;4.50;;
17648;SDS011;8943;51.110;-4.158;2023-03-23T07:18:31;21.80;;;4.10;;
17648;SDS011;8943;51.110;-4.158;2023-03-23T07:21:03;18.27;;;3.57;;
17648;SDS011;8943;51.110;-4.158;2023-03-23T07:23:41;14.93;;;4.07;;
17648;SDS011;8943;51.110;-4.158;2023-03-23T07:26:17;20.17;;;4.07;;
17648;SDS011;8943;51.110;-4.158;2023-03-23T07:28:47;17.13;;;4.20;;
17648;SDS011;8943;51.110;-4.158;2023-03-23T07:31:15;19.77;;;4.07;;
17648;SDS011;8943;51.110;-4.158;2023-03-23T07:33:57;17.43;;;3.80;;
17648;SDS011;8943;51.110;-4.158;2023-03-23T07:36:26;16.23;;;3.97;;
17648;SDS011;8943;51.110;-4.158;2023-03-23T07:38:56;14.90;;;3.70;;
17648;SDS011;8943;51.110;-4.158;2023-03-23T07:41:24;17.03;;;3.50;;
17648;SDS011;8943;51.110;-4.158;2023-03-23T07:43:57;15.97;;;3.27;;
17648;SDS011;8943;51.110;-4.158;2023-03-23T07:46:25;18.83;;;4.33;;
17648;SDS011;8943;51.110;-4.158;2023-03-23T07:49:02;18.27;;;3.50;;
17648;SDS011;8943;51.110;-4.158;2023-03-23T07:51:30;22.00;;;4.27;;
17648;SDS011;8943;51.110;-4.158;2023-03-23T07:53:59;21.53;;;4.03;;
17648;SDS011;8943;51.110;-4.158;2023-03-23T07:56:29;17.87;;;4.03;;
17648;SDS011;8943;51.110;-4.158;2023-03-23T07:58:56;17.93;;;4.43;;
17648;SDS011;8943;51.110;-4.158;2023-03-23T08:01:24;17.17;;;4.17;;
17648;SDS011;8943;51.110;-4.158;2023-03-23T08:03:54;20.60;;;4.20;;
17648;SDS011;8943;51.110;-4.158;2023-03-23T08:06:31;14.63;;;3.93;;
17648;SDS011;8943;51.110;-4.158;2023-03-23T08:09:21;22.10;;;4.77;;
17648;SDS011;8943;51.110;-4.158;2023-03-23T08:11:49;35.03;;;4.70;;
17648;SDS011;8943;51.110;-4.158;2023-03-23T08:14:17;18.87;;;4.30;;
17648;SDS011;8943;51.110;-4.158;2023-03-23T08:16:44;21.93;;;4.60;;
17648;SDS011;8943;51.110;-4.158;2023-03-23T08:19:11;21.77;;;4.47;;
17648;SDS011;8943;51.110;-4.158;2023-03-23T08:21:43;24.10;;;5.03;;
17648;SDS011;8943;51.110;-4.158;2023-03-23T08:24:11;14.97;;;4.07;;
17648;SDS011;8943;51.110;-4.158;2023-03-23T08:26:38;21.17;;;4.93;;
17648;SDS011;8943;51.110;-4.158;2023-03-23T08:29:09;19.20;;;4.60;;
17648;SDS011;8943;51.110;-4.158;2023-03-23T08:31:37;18.83;;;4.50;;
17648;SDS011;8943;51.110;-4.158;2023-03-23T08:34:09;18.60;;;4.47;;
17648;SDS011;8943;51.110;-4.158;2023-03-23T08:36:42;18.60;;;4.57;;
17648;SDS011;8943;51.110;-4.158;2023-03-23T08:42:12;20.87;;;4.43;;
17648;SDS011;8943;51.110;-4.158;2023-03-23T08:44:56;16.43;;;3.70;;
17648;SDS011;8943;51.110;-4.158;2023-03-23T08:47:24;19.87;;;4.47;;
17648;SDS011;8943;51.110;-4.158;2023-03-23T09:03:34;19.80;;;4.03;;
17648;SDS011;8943;51.110;-4.158;2023-03-23T09:14:41;14.40;;;3.87;;
17648;SDS011;8943;51.110;-4.158;2023-03-23T09:17:12;15.40;;;3.57;;
17648;SDS011;8943;51.110;-4.158;2023-03-23T09:19:42;21.90;;;5.00;;
17648;SDS011;8943;51.110;-4.158;2023-03-23T09:22:10;21.57;;;4.63;;
17648;SDS011;8943;51.110;-4.158;2023-03-23T09:45:31;25.73;;;4.70;;
17648;SDS011;8943;51.110;-4.158;2023-03-23T09:48:15;22.17;;;4.53;;
17648;SDS011;8943;51.110;-4.158;2023-03-23T09:50:58;18.50;;;4.37;;
17648;SDS011;8943;51.110;-4.158;2023-03-23T09:53:33;22.50;;;4.10;;
17648;SDS011;8943;51.110;-4.158;2023-03-23T09:59:00;21.83;;;5.03;;
17648;SDS011;8943;51.110;-4.158;2023-03-23T10:05:23;33.33;;;5.80;;
17648;SDS011;8943;51.110;-4.158;2023-03-23T10:08:11;21.33;;;4.93;;
17648;SDS011;8943;51.110;-4.158;2023-03-23T10:10:50;10.53;;;2.70;;
17648;SDS011;8943;51.110;-4.158;2023-03-23T10:13:38;20.40;;;4.87;;
17648;SDS011;8943;51.110;-4.158;2023-03-23T10:22:50;26.97;;;4.83;;
17648;SDS011;8943;51.110;-4.158;2023-03-23T10:25:22;17.73;;;4.57;;
17648;SDS011;8943;51.110;-4.158;2023-03-23T10:27:54;25.13;;;4.47;;
17648;SDS011;8943;51.110;-4.158;2023-03-23T12:16:56;19.87;;;4.63;;
17648;SDS011;8943;51.110;-4.158;2023-03-23T12:19:43;19.30;;;4.07;;
17648;SDS011;8943;51.110;-4.158;2023-03-23T12:22:24;16.97;;;3.57;;
17648;SDS011;8943;51.110;-4.158;2023-03-23T12:25:08;16.83;;;3.47;;
17648;SDS011;8943;51.110;-4.158;2023-03-23T12:27:49;16.10;;;3.93;;
17648;SDS011;8943;51.110;-4.158;2023-03-23T12:30:28;20.17;;;5.00;;
17648;SDS011;8943;51.110;-4.158;2023-03-23T12:33:13;30.63;;;6.57;;
17648;SDS011;8943;51.110;-4.158;2023-03-23T12:44:00;34.83;;;7.30;;
17648;SDS011;8943;51.110;-4.158;2023-03-23T12:49:29;19.67;;;4.30;;
17648;SDS011;8943;51.110;-4.158;2023-03-23T12:52:01;21.10;;;4.77;;
17648;SDS011;8943;51.110;-4.158;2023-03-23T12:54:38;26.43;;;5.20;;
17648;SDS011;8943;51.110;-4.158;2023-03-23T12:57:11;24.87;;;5.17;;
17648;SDS011;8943;51.110;-4.158;2023-03-23T12:59:48;26.83;;;5.50;;
17648;SDS011;8943;51.110;-4.158;2023-03-23T13:02:21;22.90;;;6.30;;
17648;SDS011;8943;51.110;-4.158;2023-03-23T13:04:55;22.30;;;5.47;;
17648;SDS011;8943;51.110;-4.158;2023-03-23T13:07:31;27.57;;;5.70;;
17648;SDS011;8943;51.110;-4.158;2023-03-23T13:10:03;25.53;;;5.80;;
17648;SDS011;8943;51.110;-4.158;2023-03-23T13:12:34;31.47;;;6.43;;
17648;SDS011;8943;51.110;-4.158;2023-03-23T13:15:10;34.43;;;6.60;;
17648;SDS011;8943;51.110;-4.158;2023-03-23T13:17:51;24.10;;;5.67;;
17648;SDS011;8943;51.110;-4.158;2023-03-23T13:23:37;23.30;;;5.30;;
17648;SDS011;8943;51.110;-4.158;2023-03-23T13:26:11;25.70;;;4.93;;
17648;SDS011;8943;51.110;-4.158;2023-03-23T13:28:49;24.37;;;4.80;;
17648;SDS011;8943;51.110;-4.158;2023-03-23T13:31:25;23.40;;;5.70;;
17648;SDS011;8943;51.110;-4.158;2023-03-23T13:34:02;15.27;;;3.70;;
17648;SDS011;8943;51.110;-4.158;2023-03-23T13:36:37;15.97;;;4.27;;
17648;SDS011;8943;51.110;-4.158;2023-03-23T13:39:18;11.83;;;3.40;;
17648;SDS011;8943;51.110;-4.158;2023-03-23T13:42:03;16.40;;;3.87;;
17648;SDS011;8943;51.110;-4.158;2023-03-23T13:44:55;14.80;;;4.27;;
17648;SDS011;8943;51.110;-4.158;2023-03-23T13:47:38;21.70;;;5.00;;
17648;SDS011;8943;51.110;-4.158;2023-03-23T13:50:11;18.20;;;4.13;;
17648;SDS011;8943;51.110;-4.158;2023-03-23T13:53:12;14.10;;;3.53;;
17648;SDS011;8943;51.110;-4.158;2023-03-23T13:56:05;11.80;;;3.27;;
17648;SDS011;8943;51.110;-4.158;2023-03-23T13:58:46;11.03;;;3.20;;
17648;SDS011;8943;51.110;-4.158;2023-03-23T14:01:31;16.73;;;3.77;;
17648;SDS011;8943;51.110;-4.158;2023-03-23T14:04:11;10.00;;;2.57;;
17648;SDS011;8943;51.110;-4.158;2023-03-23T14:06:55;15.00;;;3.20;;
17648;SDS011;8943;51.110;-4.158;2023-03-23T14:37:03;9.27;;;2.30;;
17648;SDS011;8943;51.110;-4.158;2023-03-23T14:42:47;12.20;;;2.17;;
17648;SDS011;8943;51.110;-4.158;2023-03-23T14:45:39;10.67;;;2.47;;
17648;SDS011;8943;51.110;-4.158;2023-03-23T14:48:34;7.13;;;2.10;;
17648;SDS011;8943;51.110;-4.158;2023-03-23T14:51:16;6.07;;;1.70;;
17648;SDS011;8943;51.110;-4.158;2023-03-23T14:53:57;7.67;;;2.13;;
17648;SDS011;8943;51.110;-4.158;2023-03-23T15:04:34;8.47;;;2.00;;
17648;SDS011;8943;51.110;-4.158;2023-03-23T15:07:08;7.80;;;2.27;;
17648;SDS011;8943;51.110;-4.158;2023-03-23T15:13:04;10.13;;;2.20;;
17648;SDS011;8943;51.110;-4.158;2023-03-23T15:15:45;8.27;;;2.07;;
17648;SDS011;8943;51.110;-4.158;2023-03-23T19:06:08;27.83;;;5.90;;
17648;SDS011;8943;51.110;-4.158;2023-03-23T19:08:44;29.80;;;6.00;;
17648;SDS011;8943;51.110;-4.158;2023-03-23T19:17:10;28.77;;;5.37;;
17648;SDS011;8943;51.110;-4.158;2023-03-23T19:19:48;29.20;;;6.10;;
17648;SDS011;8943;51.110;-4.158;2023-03-23T19:25:15;29.97;;;6.43;;
17648;SDS011;8943;51.110;-4.158;2023-03-23T19:27:46;27.40;;;7.47;;
17648;SDS011;8943;51.110;-4.158;2023-03-23T19:30:23;32.00;;;7.93;;
17648;SDS011;8943;51.110;-4.158;2023-03-23T19:32:57;32.53;;;7.67;;
17648;SDS011;8943;51.110;-4.158;2023-03-23T19:35:32;29.80;;;6.23;;
17648;SDS011;8943;51.110;-4.158;2023-03-23T19:38:02;12.50;;;2.97;;
17648;SDS011;8943;51.110;-4.158;2023-03-23T19:43:40;23.93;;;5.67;;
17648;SDS011;8943;51.110;-4.158;2023-03-23T19:46:12;26.63;;;5.80;;
17648;SDS011;8943;51.110;-4.158;2023-03-23T19:51:37;29.00;;;6.70;;
17648;SDS011;8943;51.110;-4.158;2023-03-23T19:54:10;24.60;;;5.93;;
17648;SDS011;8943;51.110;-4.158;2023-03-23T19:56:41;35.57;;;5.23;;
17648;SDS011;8943;51.110;-4.158;2023-03-23T19:59:38;20.20;;;5.43;;
17648;SDS011;8943;51.110;-4.158;2023-03-23T20:02:26;24.07;;;5.27;;
17648;SDS011;8943;51.110;-4.158;2023-03-23T20:04:55;32.13;;;5.17;;
17648;SDS011;8943;51.110;-4.158;2023-03-23T20:07:23;25.60;;;4.30;;
17648;SDS011;8943;51.110;-4.158;2023-03-23T20:09:52;25.90;;;4.73;;
17648;SDS011;8943;51.110;-4.158;2023-03-23T20:12:21;25.80;;;4.07;;
17648;SDS011;8943;51.110;-4.158;2023-03-23T20:14:54;21.53;;;4.67;;
17648;SDS011;8943;51.110;-4.158;2023-03-23T20:17:25;28.80;;;5.97;;
17648;SDS011;8943;51.110;-4.158;2023-03-23T20:22:46;21.53;;;5.20;;
17648;SDS011;8943;51.110;-4.158;2023-03-23T20:28:02;29.73;;;5.23;;
17648;SDS011;8943;51.110;-4.158;2023-03-23T20:33:47;23.87;;;4.27;;
17648;SDS011;8943;51.110;-4.158;2023-03-23T20:50:07;18.73;;;4.27;;
17648;SDS011;8943;51.110;-4.158;2023-03-23T20:52:38;24.13;;;4.00;;
17648;SDS011;8943;51.110;-4.158;2023-03-23T20:55:10;15.17;;;2.83;;
17648;SDS011;8943;51.110;-4.158;2023-03-23T20:57:40;22.70;;;4.50;;
17648;SDS011;8943;51.110;-4.158;2023-03-23T21:00:11;24.77;;;5.00;;
17648;SDS011;8943;51.110;-4.158;2023-03-23T21:02:44;23.63;;;5.00;;
17648;SDS011;8943;51.110;-4.158;2023-03-23T21:05:16;36.50;;;6.10;;
17648;SDS011;8943;51.110;-4.158;2023-03-23T21:13:17;26.60;;;5.03;;
17648;SDS011;8943;51.110;-4.158;2023-03-23T21:15:46;36.60;;;5.53;;
17648;SDS011;8943;51.110;-4.158;2023-03-23T21:18:18;21.47;;;4.83;;
17648;SDS011;8943;51.110;-4.158;2023-03-23T21:20:51;18.77;;;4.00;;
17648;SDS011;8943;51.110;-4.158;2023-03-23T21:23:19;30.07;;;5.03;;
17648;SDS011;8943;51.110;-4.158;2023-03-23T21:25:52;38.00;;;6.20;;
17648;SDS011;8943;51.110;-4.158;2023-03-23T21:28:26;23.73;;;4.37;;
17648;SDS011;8943;51.110;-4.158;2023-03-23T21:30:58;16.67;;;4.40;;
17648;SDS011;8943;51.110;-4.158;2023-03-23T21:33:28;23.87;;;4.67;;
17648;SDS011;8943;51.110;-4.158;2023-03-23T21:35:58;26.60;;;5.10;;
17648;SDS011;8943;51.110;-4.158;2023-03-23T21:38:27;25.20;;;4.67;;
17648;SDS011;8943;51.110;-4.158;2023-03-23T21:40:57;18.10;;;4.37;;
17648;SDS011;8943;51.110;-4.158;2023-03-23T21:43:26;13.27;;;3.03;;
17648;SDS011;8943;51.110;-4.158;2023-03-23T21:45:57;19.73;;;3.53;;
17648;SDS011;8943;51.110;-4.158;2023-03-23T21:48:28;31.10;;;5.47;;
17648;SDS011;8943;51.110;-4.158;2023-03-23T21:51:05;32.87;;;6.07;;
17648;SDS011;8943;51.110;-4.158;2023-03-23T21:53:34;33.77;;;5.90;;
17648;SDS011;8943;51.110;-4.158;2023-03-23T21:56:05;28.50;;;5.53;;
17648;SDS011;8943;51.110;-4.158;2023-03-23T21:58:36;28.87;;;6.27;;
17648;SDS011;8943;51.110;-4.158;2023-03-23T22:01:05;16.47;;;3.53;;
17648;SDS011;8943;51.110;-4.158;2023-03-23T22:03:33;16.50;;;3.87;;
17648;SDS011;8943;51.110;-4.158;2023-03-23T22:06:12;21.23;;;4.27;;
17648;SDS011;8943;51.110;-4.158;2023-03-23T22:08:44;23.53;;;4.30;;
17648;SDS011;8943;51.110;-4.158;2023-03-23T22:11:14;15.27;;;3.53;;
17648;SDS011;8943;51.110;-4.158;2023-03-23T22:13:48;25.03;;;5.63;;
17648;SDS011;8943;51.110;-4.158;2023-03-23T22:16:18;19.37;;;3.80;;
17648;SDS011;8943;51.110;-4.158;2023-03-23T22:18:49;33.87;;;5.57;;
17648;SDS011;8943;51.110;-4.158;2023-03-23T22:21:29;18.70;;;3.03;;
17648;SDS011;8943;51.110;-4.158;2023-03-23T22:24:02;18.57;;;3.57;;
17648;SDS011;8943;51.110;-4.158;2023-03-23T22:26:30;18.60;;;4.03;;
17648;SDS011;8943;51.110;-4.158;2023-03-23T22:29:01;33.90;;;5.47;;
17648;SDS011;8943;51.110;-4.158;2023-03-23T22:31:36;24.13;;;5.57;;
17648;SDS011;8943;51.110;-4.158;2023-03-23T22:34:07;14.40;;;3.50;;
17648;SDS011;8943;51.110;-4.158;2023-03-23T22:36:39;24.53;;;4.37;;
17648;SDS011;8943;51.110;-4.158;2023-03-23T22:39:08;30.10;;;5.03;;
17648;SDS011;8943;51.110;-4.158;2023-03-23T22:41:38;30.07;;;5.17;;
17648;SDS011;8943;51.110;-4.158;2023-03-23T22:44:16;31.57;;;5.63;;
17648;SDS011;8943;51.110;-4.158;2023-03-23T22:46:45;29.60;;;5.43;;
17648;SDS011;8943;51.110;-4.158;2023-03-23T22:49:14;21.83;;;4.80;;
17648;SDS011;8943;51.110;-4.158;2023-03-23T22:51:44;31.97;;;4.60;;
17648;SDS011;8943;51.110;-4.158;2023-03-23T22:54:20;23.10;;;3.97;;
17648;SDS011;8943;51.110;-4.158;2023-03-23T22:56:49;16.50;;;4.03;;
17648;SDS011;8943;51.110;-4.158;2023-03-23T22:59:26;24.50;;;4.80;;
17648;SDS011;8943;51.110;-4.158;2023-03-23T23:13:42;23.40;;;4.60;;
17648;SDS011;8943;51.110;-4.158;2023-03-23T23:16:17;12.43;;;3.00;;
17648;SDS011;8943;51.110;-4.158;2023-03-23T23:19:03;22.43;;;3.70;;
17648;SDS011;8943;51.110;-4.158;2023-03-23T23:47:15;22.80;;;4.00;;
